sensor_id;sensor_type;location;lat;lon;timestamp;pressure;altitude;pressure_sealevel;temperature;humidity
45991;BME280;31721;41.740;-88.000;2023-08-21T00:02:18;99287.19;;;31.12;43.34
45991;BME280;31721;41.740;-88.000;2023-08-21T00:04:46;99290.13;;;31.05;43.57
45991;BME280;31721;41.740;-88.000;2023-08-21T00:07:15;99290.17;;;31.02;43.29
45991;BME280;31721;41.740;-88.000;2023-08-21T00:09:42;99293.07;;;30.93;43.26
45991;BME280;31721;41.740;-88.000;2023-08-21T00:12:10;99286.78;;;30.92;43.37
45991;BME280;31721;41.740;-88.000;2023-08-21T00:14:38;99282.17;;;30.89;43.09
45991;BME280;31721;41.740;-88.000;2023-08-21T00:17:06;99278.63;;;30.81;43.10
45991;BME280;31721;41.740;-88.000;2023-08-21T00:19:34;99279.97;;;30.75;43.17
45991;BME280;31721;41.740;-88.000;2023-08-21T00:22:02;99284.52;;;30.72;43.22
45991;BME280;31721;41.740;-88.000;2023-08-21T00:24:30;99293.32;;;30.68;43.46
45991;BME280;31721;41.740;-88.000;2023-08-21T00:26:58;99302.53;;;30.63;43.60
45991;BME280;31721;41.740;-88.000;2023-08-21T00:29:26;99309.25;;;30.63;43.66
45991;BME280;31721;41.740;-88.000;2023-08-21T00:31:55;99314.75;;;30.48;43.64
45991;BME280;31721;41.740;-88.000;2023-08-21T00:34:23;99319.58;;;30.61;43.69
45991;BME280;31721;41.740;-88.000;2023-08-21T00:36:51;99324.70;;;30.46;43.71
45991;BME280;31721;41.740;-88.000;2023-08-21T00:39:18;99328.25;;;30.47;43.60
45991;BME280;31721;41.740;-88.000;2023-08-21T00:41:46;99329.93;;;30.29;43.74
45991;BME280;31721;41.740;-88.000;2023-08-21T00:44:14;99329.05;;;30.30;43.66
45991;BME280;31721;41.740;-88.000;2023-08-21T00:46:42;99335.77;;;30.22;43.80
45991;BME280;31721;41.740;-88.000;2023-08-21T00:49:11;99333.38;;;30.19;44.05
45991;BME280;31721;41.740;-88.000;2023-08-21T00:51:39;99328.10;;;30.11;44.29
45991;BME280;31721;41.740;-88.000;2023-08-21T00:54:07;99326.01;;;30.04;44.53
45991;BME280;31721;41.740;-88.000;2023-08-21T00:56:35;99328.10;;;29.99;44.88
45991;BME280;31721;41.740;-88.000;2023-08-21T00:59:03;99336.83;;;29.94;44.97
45991;BME280;31721;41.740;-88.000;2023-08-21T01:01:31;99341.73;;;29.89;44.94
45991;BME280;31721;41.740;-88.000;2023-08-21T01:04:00;99344.22;;;29.82;44.97
45991;BME280;31721;41.740;-88.000;2023-08-21T01:06:28;99342.84;;;29.73;45.17
45991;BME280;31721;41.740;-88.000;2023-08-21T01:09:00;99340.24;;;29.75;45.30
45991;BME280;31721;41.740;-88.000;2023-08-21T01:11:34;99347.37;;;29.65;45.46
45991;BME280;31721;41.740;-88.000;2023-08-21T01:14:11;99357.53;;;29.61;45.65
45991;BME280;31721;41.740;-88.000;2023-08-21T01:16:44;99361.76;;;29.63;45.80
45991;BME280;31721;41.740;-88.000;2023-08-21T01:19:22;99365.00;;;29.47;45.93
45991;BME280;31721;41.740;-88.000;2023-08-21T01:21:52;99368.44;;;29.40;46.12
45991;BME280;31721;41.740;-88.000;2023-08-21T01:24:21;99375.25;;;29.46;46.39
45991;BME280;31721;41.740;-88.000;2023-08-21T01:26:48;99382.45;;;29.29;46.37
45991;BME280;31721;41.740;-88.000;2023-08-21T01:29:16;99385.30;;;29.30;46.49
45991;BME280;31721;41.740;-88.000;2023-08-21T01:31:50;99391.13;;;29.22;46.61
45991;BME280;31721;41.740;-88.000;2023-08-21T01:34:20;99397.40;;;29.18;46.93
45991;BME280;31721;41.740;-88.000;2023-08-21T01:36:49;99397.95;;;29.13;47.06
45991;BME280;31721;41.740;-88.000;2023-08-21T01:39:17;99392.48;;;29.06;47.17
45991;BME280;31721;41.740;-88.000;2023-08-21T01:41:45;99386.72;;;29.06;47.17
45991;BME280;31721;41.740;-88.000;2023-08-21T01:44:13;99388.02;;;28.96;47.35
45991;BME280;31721;41.740;-88.000;2023-08-21T01:46:40;99389.67;;;28.88;47.62
45991;BME280;31721;41.740;-88.000;2023-08-21T01:49:08;99388.61;;;28.94;47.84
45991;BME280;31721;41.740;-88.000;2023-08-21T01:51:36;99389.82;;;28.69;47.88
45991;BME280;31721;41.740;-88.000;2023-08-21T01:54:03;99392.76;;;28.64;48.02
45991;BME280;31721;41.740;-88.000;2023-08-21T01:56:31;99397.64;;;28.70;48.18
45991;BME280;31721;41.740;-88.000;2023-08-21T01:59:00;99400.24;;;28.60;48.11
45991;BME280;31721;41.740;-88.000;2023-08-21T02:01:27;99405.46;;;28.50;48.42
45991;BME280;31721;41.740;-88.000;2023-08-21T02:03:55;99407.15;;;28.35;48.54
45991;BME280;31721;41.740;-88.000;2023-08-21T02:06:23;99411.88;;;28.27;48.69
45991;BME280;31721;41.740;-88.000;2023-08-21T02:08:51;99417.62;;;28.27;48.79
45991;BME280;31721;41.740;-88.000;2023-08-21T02:11:18;99424.51;;;28.16;49.13
45991;BME280;31721;41.740;-88.000;2023-08-21T02:13:46;99430.84;;;28.01;48.96
45991;BME280;31721;41.740;-88.000;2023-08-21T02:16:13;99438.53;;;27.99;48.94
45991;BME280;31721;41.740;-88.000;2023-08-21T02:18:42;99445.19;;;27.89;49.34
45991;BME280;31721;41.740;-88.000;2023-08-21T02:21:10;99443.03;;;27.88;49.47
45991;BME280;31721;41.740;-88.000;2023-08-21T02:23:39;99445.35;;;27.76;49.42
45991;BME280;31721;41.740;-88.000;2023-08-21T02:26:06;99447.64;;;27.71;49.96
45991;BME280;31721;41.740;-88.000;2023-08-21T02:28:35;99448.13;;;27.49;50.14
45991;BME280;31721;41.740;-88.000;2023-08-21T02:31:03;99448.93;;;27.44;50.38
45991;BME280;31721;41.740;-88.000;2023-08-21T02:33:31;99449.47;;;27.25;50.80
45991;BME280;31721;41.740;-88.000;2023-08-21T02:36:00;99442.62;;;27.16;50.66
45991;BME280;31721;41.740;-88.000;2023-08-21T02:38:28;99442.38;;;27.10;50.72
45991;BME280;31721;41.740;-88.000;2023-08-21T02:40:55;99443.05;;;27.08;50.93
45991;BME280;31721;41.740;-88.000;2023-08-21T02:43:23;99444.20;;;27.03;51.18
45991;BME280;31721;41.740;-88.000;2023-08-21T02:45:51;99443.06;;;26.94;51.17
45991;BME280;31721;41.740;-88.000;2023-08-21T02:48:19;99440.60;;;26.92;51.35
45991;BME280;31721;41.740;-88.000;2023-08-21T02:50:48;99440.17;;;26.88;51.59
45991;BME280;31721;41.740;-88.000;2023-08-21T02:53:16;99442.48;;;26.85;51.67
45991;BME280;31721;41.740;-88.000;2023-08-21T02:55:44;99446.01;;;26.82;51.67
45991;BME280;31721;41.740;-88.000;2023-08-21T02:58:12;99444.66;;;26.76;51.91
45991;BME280;31721;41.740;-88.000;2023-08-21T03:00:40;99445.62;;;26.72;52.00
45991;BME280;31721;41.740;-88.000;2023-08-21T03:03:08;99444.07;;;26.72;52.13
45991;BME280;31721;41.740;-88.000;2023-08-21T03:05:36;99445.08;;;26.58;52.32
45991;BME280;31721;41.740;-88.000;2023-08-21T03:08:04;99452.29;;;26.60;52.47
45991;BME280;31721;41.740;-88.000;2023-08-21T03:10:33;99461.42;;;26.48;52.35
45991;BME280;31721;41.740;-88.000;2023-08-21T03:13:01;99464.03;;;26.40;52.63
45991;BME280;31721;41.740;-88.000;2023-08-21T03:15:29;99464.10;;;26.44;52.81
45991;BME280;31721;41.740;-88.000;2023-08-21T03:17:57;99461.75;;;26.35;52.82
45991;BME280;31721;41.740;-88.000;2023-08-21T03:20:26;99465.13;;;26.28;53.21
45991;BME280;31721;41.740;-88.000;2023-08-21T03:22:54;99470.62;;;26.30;52.91
45991;BME280;31721;41.740;-88.000;2023-08-21T03:25:21;99476.64;;;26.38;53.07
45991;BME280;31721;41.740;-88.000;2023-08-21T03:27:49;99484.38;;;26.36;52.95
45991;BME280;31721;41.740;-88.000;2023-08-21T03:30:17;99478.86;;;26.26;52.97
45991;BME280;31721;41.740;-88.000;2023-08-21T03:32:45;99478.46;;;26.22;52.83
45991;BME280;31721;41.740;-88.000;2023-08-21T03:35:13;99477.81;;;26.09;52.83
45991;BME280;31721;41.740;-88.000;2023-08-21T03:37:41;99487.75;;;26.15;52.86
45991;BME280;31721;41.740;-88.000;2023-08-21T03:40:09;99491.19;;;26.03;52.68
45991;BME280;31721;41.740;-88.000;2023-08-21T03:42:37;99494.88;;;26.06;52.31
45991;BME280;31721;41.740;-88.000;2023-08-21T03:45:05;99494.33;;;25.97;52.27
45991;BME280;31721;41.740;-88.000;2023-08-21T03:47:33;99497.70;;;25.95;52.20
45991;BME280;31721;41.740;-88.000;2023-08-21T03:50:01;99509.11;;;25.80;52.02
45991;BME280;31721;41.740;-88.000;2023-08-21T03:52:29;99510.12;;;25.87;51.79
45991;BME280;31721;41.740;-88.000;2023-08-21T03:54:57;99511.02;;;25.80;51.77
45991;BME280;31721;41.740;-88.000;2023-08-21T03:57:25;99513.94;;;25.74;51.51
45991;BME280;31721;41.740;-88.000;2023-08-21T03:59:52;99517.11;;;25.70;51.33
45991;BME280;31721;41.740;-88.000;2023-08-21T04:02:20;99519.61;;;25.61;50.94
45991;BME280;31721;41.740;-88.000;2023-08-21T04:04:48;99517.67;;;25.63;50.79
45991;BME280;31721;41.740;-88.000;2023-08-21T04:07:16;99513.80;;;25.53;50.72
45991;BME280;31721;41.740;-88.000;2023-08-21T04:09:43;99515.92;;;25.49;50.88
45991;BME280;31721;41.740;-88.000;2023-08-21T04:12:12;99516.66;;;25.46;50.66
45991;BME280;31721;41.740;-88.000;2023-08-21T04:14:39;99506.86;;;25.36;50.25
45991;BME280;31721;41.740;-88.000;2023-08-21T04:17:07;99506.43;;;25.44;50.10
45991;BME280;31721;41.740;-88.000;2023-08-21T04:19:35;99502.61;;;25.40;49.71
45991;BME280;31721;41.740;-88.000;2023-08-21T04:22:03;99502.60;;;25.44;49.69
45991;BME280;31721;41.740;-88.000;2023-08-21T04:24:31;99498.66;;;25.33;49.24
45991;BME280;31721;41.740;-88.000;2023-08-21T04:26:59;99499.23;;;25.20;49.24
45991;BME280;31721;41.740;-88.000;2023-08-21T04:29:27;99500.52;;;25.24;49.28
45991;BME280;31721;41.740;-88.000;2023-08-21T04:31:55;99505.83;;;25.10;49.19
45991;BME280;31721;41.740;-88.000;2023-08-21T04:34:23;99507.05;;;25.15;49.25
45991;BME280;31721;41.740;-88.000;2023-08-21T04:36:51;99507.82;;;25.10;49.09
45991;BME280;31721;41.740;-88.000;2023-08-21T04:39:19;99507.59;;;25.03;49.36
45991;BME280;31721;41.740;-88.000;2023-08-21T04:41:47;99509.86;;;25.11;49.21
45991;BME280;31721;41.740;-88.000;2023-08-21T04:44:15;99510.68;;;25.06;49.09
45991;BME280;31721;41.740;-88.000;2023-08-21T04:46:42;99514.07;;;24.97;49.03
45991;BME280;31721;41.740;-88.000;2023-08-21T04:49:10;99514.40;;;25.01;49.04
45991;BME280;31721;41.740;-88.000;2023-08-21T04:51:38;99511.95;;;24.99;49.14
45991;BME280;31721;41.740;-88.000;2023-08-21T04:54:06;99513.51;;;24.98;49.06
45991;BME280;31721;41.740;-88.000;2023-08-21T04:56:34;99512.10;;;24.95;49.10
45991;BME280;31721;41.740;-88.000;2023-08-21T04:59:02;99507.28;;;24.85;49.13
45991;BME280;31721;41.740;-88.000;2023-08-21T05:01:29;99504.65;;;24.82;49.18
45991;BME280;31721;41.740;-88.000;2023-08-21T05:03:57;99509.80;;;24.85;49.12
45991;BME280;31721;41.740;-88.000;2023-08-21T05:06:25;99508.44;;;24.82;49.36
45991;BME280;31721;41.740;-88.000;2023-08-21T05:08:53;99503.13;;;24.72;49.31
45991;BME280;31721;41.740;-88.000;2023-08-21T05:11:20;99508.95;;;24.73;49.33
45991;BME280;31721;41.740;-88.000;2023-08-21T05:13:48;99518.84;;;24.78;49.17
45991;BME280;31721;41.740;-88.000;2023-08-21T05:16:15;99524.05;;;24.73;49.08
45991;BME280;31721;41.740;-88.000;2023-08-21T05:18:43;99524.87;;;24.50;49.29
45991;BME280;31721;41.740;-88.000;2023-08-21T05:21:11;99522.40;;;24.53;49.35
45991;BME280;31721;41.740;-88.000;2023-08-21T05:23:39;99522.45;;;24.51;49.59
45991;BME280;31721;41.740;-88.000;2023-08-21T05:26:06;99523.98;;;24.48;49.67
45991;BME280;31721;41.740;-88.000;2023-08-21T05:28:35;99529.06;;;24.39;49.57
45991;BME280;31721;41.740;-88.000;2023-08-21T05:31:03;99527.17;;;24.42;49.31
45991;BME280;31721;41.740;-88.000;2023-08-21T05:33:30;99530.36;;;24.40;49.52
45991;BME280;31721;41.740;-88.000;2023-08-21T05:35:58;99533.81;;;24.48;49.61
45991;BME280;31721;41.740;-88.000;2023-08-21T05:38:25;99536.87;;;24.46;49.52
45991;BME280;31721;41.740;-88.000;2023-08-21T05:40:53;99537.13;;;24.47;49.39
45991;BME280;31721;41.740;-88.000;2023-08-21T05:43:20;99537.44;;;24.47;49.33
45991;BME280;31721;41.740;-88.000;2023-08-21T05:45:48;99539.30;;;24.44;49.22
45991;BME280;31721;41.740;-88.000;2023-08-21T05:48:16;99543.00;;;24.42;49.22
45991;BME280;31721;41.740;-88.000;2023-08-21T05:50:44;99538.77;;;24.41;49.23
45991;BME280;31721;41.740;-88.000;2023-08-21T05:53:13;99532.34;;;24.39;48.98
45991;BME280;31721;41.740;-88.000;2023-08-21T05:55:40;99527.85;;;24.38;49.17
45991;BME280;31721;41.740;-88.000;2023-08-21T05:58:08;99524.00;;;24.30;49.20
45991;BME280;31721;41.740;-88.000;2023-08-21T06:00:38;99519.19;;;24.39;49.24
45991;BME280;31721;41.740;-88.000;2023-08-21T06:03:07;99514.34;;;24.38;49.15
45991;BME280;31721;41.740;-88.000;2023-08-21T06:05:34;99508.31;;;24.38;49.38
45991;BME280;31721;41.740;-88.000;2023-08-21T06:08:02;99503.61;;;24.35;49.25
45991;BME280;31721;41.740;-88.000;2023-08-21T06:10:31;99503.84;;;24.36;49.43
45991;BME280;31721;41.740;-88.000;2023-08-21T06:12:59;99504.26;;;24.35;49.37
45991;BME280;31721;41.740;-88.000;2023-08-21T06:15:27;99510.77;;;24.33;49.68
45991;BME280;31721;41.740;-88.000;2023-08-21T06:17:54;99514.70;;;24.32;49.54
45991;BME280;31721;41.740;-88.000;2023-08-21T06:20:22;99515.64;;;24.43;49.60
45991;BME280;31721;41.740;-88.000;2023-08-21T06:22:50;99510.23;;;24.28;49.70
45991;BME280;31721;41.740;-88.000;2023-08-21T06:25:17;99510.04;;;24.27;49.82
45991;BME280;31721;41.740;-88.000;2023-08-21T06:27:45;99513.17;;;24.22;49.77
45991;BME280;31721;41.740;-88.000;2023-08-21T06:30:13;99515.09;;;24.08;49.84
45991;BME280;31721;41.740;-88.000;2023-08-21T06:35:20;99516.86;;;24.04;50.22
45991;BME280;31721;41.740;-88.000;2023-08-21T06:37:48;99516.33;;;24.10;50.45
45991;BME280;31721;41.740;-88.000;2023-08-21T06:40:16;99519.14;;;24.02;50.58
45991;BME280;31721;41.740;-88.000;2023-08-21T06:42:44;99520.53;;;23.98;50.44
45991;BME280;31721;41.740;-88.000;2023-08-21T06:45:12;99522.39;;;23.96;50.58
45991;BME280;31721;41.740;-88.000;2023-08-21T06:47:39;99520.23;;;23.92;50.79
45991;BME280;31721;41.740;-88.000;2023-08-21T06:50:07;99519.33;;;23.89;51.04
45991;BME280;31721;41.740;-88.000;2023-08-21T06:52:35;99522.44;;;23.88;51.07
45991;BME280;31721;41.740;-88.000;2023-08-21T06:55:04;99519.09;;;23.86;51.05
45991;BME280;31721;41.740;-88.000;2023-08-21T06:57:32;99517.09;;;23.85;51.06
45991;BME280;31721;41.740;-88.000;2023-08-21T06:59:59;99515.38;;;23.77;51.13
45991;BME280;31721;41.740;-88.000;2023-08-21T07:02:27;99515.42;;;23.74;51.36
45991;BME280;31721;41.740;-88.000;2023-08-21T07:04:55;99519.59;;;23.82;51.33
45991;BME280;31721;41.740;-88.000;2023-08-21T07:07:23;99522.34;;;23.83;51.62
45991;BME280;31721;41.740;-88.000;2023-08-21T07:09:50;99526.27;;;23.88;51.63
45991;BME280;31721;41.740;-88.000;2023-08-21T07:12:18;99527.68;;;23.80;51.87
45991;BME280;31721;41.740;-88.000;2023-08-21T07:14:46;99526.39;;;23.78;51.87
45991;BME280;31721;41.740;-88.000;2023-08-21T07:17:14;99528.11;;;23.85;51.98
45991;BME280;31721;41.740;-88.000;2023-08-21T07:19:42;99533.49;;;23.76;52.01
45991;BME280;31721;41.740;-88.000;2023-08-21T07:22:10;99530.91;;;23.75;52.08
45991;BME280;31721;41.740;-88.000;2023-08-21T07:24:38;99530.74;;;23.73;52.08
45991;BME280;31721;41.740;-88.000;2023-08-21T07:27:05;99535.70;;;23.79;52.28
45991;BME280;31721;41.740;-88.000;2023-08-21T07:29:33;99536.16;;;23.73;52.37
45991;BME280;31721;41.740;-88.000;2023-08-21T07:32:02;99538.02;;;23.80;52.43
45991;BME280;31721;41.740;-88.000;2023-08-21T07:34:30;99538.42;;;23.80;52.40
45991;BME280;31721;41.740;-88.000;2023-08-21T07:36:58;99540.53;;;23.87;52.51
45991;BME280;31721;41.740;-88.000;2023-08-21T07:39:25;99538.51;;;23.72;52.55
45991;BME280;31721;41.740;-88.000;2023-08-21T07:41:53;99532.08;;;23.71;52.50
45991;BME280;31721;41.740;-88.000;2023-08-21T07:44:20;99533.67;;;23.84;52.52
45991;BME280;31721;41.740;-88.000;2023-08-21T07:46:48;99533.96;;;23.73;52.57
45991;BME280;31721;41.740;-88.000;2023-08-21T07:49:15;99529.75;;;23.73;52.74
45991;BME280;31721;41.740;-88.000;2023-08-21T07:51:43;99529.21;;;23.77;52.56
45991;BME280;31721;41.740;-88.000;2023-08-21T07:54:11;99530.00;;;23.70;52.67
45991;BME280;31721;41.740;-88.000;2023-08-21T07:56:38;99525.17;;;23.67;52.85
45991;BME280;31721;41.740;-88.000;2023-08-21T07:59:06;99524.32;;;23.59;52.83
45991;BME280;31721;41.740;-88.000;2023-08-21T08:01:35;99522.80;;;23.65;52.87
45991;BME280;31721;41.740;-88.000;2023-08-21T08:04:02;99525.21;;;23.66;52.99
45991;BME280;31721;41.740;-88.000;2023-08-21T08:06:31;99532.36;;;23.68;53.15
45991;BME280;31721;41.740;-88.000;2023-08-21T08:08:59;99529.61;;;23.58;53.13
45991;BME280;31721;41.740;-88.000;2023-08-21T08:11:27;99521.77;;;23.57;53.23
45991;BME280;31721;41.740;-88.000;2023-08-21T08:13:55;99520.63;;;23.63;53.31
45991;BME280;31721;41.740;-88.000;2023-08-21T08:16:22;99524.52;;;23.57;53.33
45991;BME280;31721;41.740;-88.000;2023-08-21T08:18:50;99522.17;;;23.57;53.35
45991;BME280;31721;41.740;-88.000;2023-08-21T08:21:18;99522.01;;;23.62;53.53
45991;BME280;31721;41.740;-88.000;2023-08-21T08:23:45;99516.27;;;23.62;53.68
45991;BME280;31721;41.740;-88.000;2023-08-21T08:26:13;99519.19;;;23.58;53.56
45991;BME280;31721;41.740;-88.000;2023-08-21T08:28:41;99523.54;;;23.57;53.58
45991;BME280;31721;41.740;-88.000;2023-08-21T08:31:15;99519.90;;;23.49;53.64
45991;BME280;31721;41.740;-88.000;2023-08-21T08:33:42;99519.93;;;23.46;53.69
45991;BME280;31721;41.740;-88.000;2023-08-21T08:36:10;99521.49;;;23.50;53.69
45991;BME280;31721;41.740;-88.000;2023-08-21T08:38:38;99526.44;;;23.47;54.09
45991;BME280;31721;41.740;-88.000;2023-08-21T08:41:11;99532.34;;;23.39;54.20
45991;BME280;31721;41.740;-88.000;2023-08-21T08:43:41;99534.35;;;23.43;54.15
45991;BME280;31721;41.740;-88.000;2023-08-21T08:46:09;99540.60;;;23.34;54.27
45991;BME280;31721;41.740;-88.000;2023-08-21T08:48:38;99535.56;;;23.25;54.39
45991;BME280;31721;41.740;-88.000;2023-08-21T08:51:06;99535.69;;;23.29;54.27
45991;BME280;31721;41.740;-88.000;2023-08-21T08:53:35;99537.68;;;23.28;54.29
45991;BME280;31721;41.740;-88.000;2023-08-21T08:56:04;99540.36;;;23.32;54.56
45991;BME280;31721;41.740;-88.000;2023-08-21T08:58:31;99535.88;;;23.31;54.46
45991;BME280;31721;41.740;-88.000;2023-08-21T09:00:59;99531.45;;;23.26;54.41
45991;BME280;31721;41.740;-88.000;2023-08-21T09:03:27;99527.13;;;23.25;54.61
45991;BME280;31721;41.740;-88.000;2023-08-21T09:05:55;99527.54;;;23.23;54.61
45991;BME280;31721;41.740;-88.000;2023-08-21T09:08:23;99526.18;;;23.22;54.62
45991;BME280;31721;41.740;-88.000;2023-08-21T09:10:50;99521.93;;;23.20;54.52
45991;BME280;31721;41.740;-88.000;2023-08-21T09:13:18;99521.76;;;23.16;54.81
45991;BME280;31721;41.740;-88.000;2023-08-21T09:15:47;99519.36;;;23.13;55.00
45991;BME280;31721;41.740;-88.000;2023-08-21T09:18:16;99523.04;;;23.09;55.14
45991;BME280;31721;41.740;-88.000;2023-08-21T09:20:44;99529.91;;;23.07;55.26
45991;BME280;31721;41.740;-88.000;2023-08-21T09:23:14;99531.35;;;23.06;55.12
45991;BME280;31721;41.740;-88.000;2023-08-21T09:25:44;99531.71;;;22.96;55.11
45991;BME280;31721;41.740;-88.000;2023-08-21T09:28:13;99532.43;;;23.02;55.29
45991;BME280;31721;41.740;-88.000;2023-08-21T09:30:46;99534.05;;;23.00;55.45
45991;BME280;31721;41.740;-88.000;2023-08-21T09:33:17;99540.74;;;23.09;55.50
45991;BME280;31721;41.740;-88.000;2023-08-21T09:35:45;99542.86;;;22.97;55.58
45991;BME280;31721;41.740;-88.000;2023-08-21T09:38:14;99544.46;;;22.93;55.61
45991;BME280;31721;41.740;-88.000;2023-08-21T09:40:43;99544.02;;;22.95;55.67
45991;BME280;31721;41.740;-88.000;2023-08-21T09:43:16;99542.04;;;22.93;55.56
45991;BME280;31721;41.740;-88.000;2023-08-21T09:45:47;99538.29;;;22.92;55.59
45991;BME280;31721;41.740;-88.000;2023-08-21T09:48:15;99537.75;;;22.99;55.58
45991;BME280;31721;41.740;-88.000;2023-08-21T09:50:44;99530.28;;;22.97;55.67
45991;BME280;31721;41.740;-88.000;2023-08-21T09:53:12;99527.08;;;22.91;55.63
45991;BME280;31721;41.740;-88.000;2023-08-21T09:55:42;99527.37;;;22.87;55.68
45991;BME280;31721;41.740;-88.000;2023-08-21T09:58:11;99523.70;;;22.87;55.65
45991;BME280;31721;41.740;-88.000;2023-08-21T10:00:40;99519.52;;;22.84;55.83
45991;BME280;31721;41.740;-88.000;2023-08-21T10:03:10;99520.24;;;22.85;55.78
45991;BME280;31721;41.740;-88.000;2023-08-21T10:05:39;99514.31;;;22.84;55.83
45991;BME280;31721;41.740;-88.000;2023-08-21T10:08:08;99517.51;;;22.83;55.66
45991;BME280;31721;41.740;-88.000;2023-08-21T10:10:38;99520.99;;;22.98;55.79
45991;BME280;31721;41.740;-88.000;2023-08-21T10:13:07;99528.14;;;22.92;56.05
45991;BME280;31721;41.740;-88.000;2023-08-21T10:15:37;99535.91;;;22.88;56.10
45991;BME280;31721;41.740;-88.000;2023-08-21T10:18:23;99534.99;;;22.78;56.04
45991;BME280;31721;41.740;-88.000;2023-08-21T10:20:53;99531.88;;;22.78;56.06
45991;BME280;31721;41.740;-88.000;2023-08-21T10:23:27;99529.52;;;22.77;56.21
45991;BME280;31721;41.740;-88.000;2023-08-21T10:25:55;99529.34;;;22.91;56.27
45991;BME280;31721;41.740;-88.000;2023-08-21T10:28:24;99527.32;;;22.82;56.30
45991;BME280;31721;41.740;-88.000;2023-08-21T10:30:51;99535.68;;;22.74;56.69
45991;BME280;31721;41.740;-88.000;2023-08-21T10:33:45;99541.86;;;22.71;56.53
45991;BME280;31721;41.740;-88.000;2023-08-21T10:36:13;99535.98;;;22.91;56.67
45991;BME280;31721;41.740;-88.000;2023-08-21T10:38:59;99542.27;;;22.85;56.58
45991;BME280;31721;41.740;-88.000;2023-08-21T10:41:27;99543.40;;;22.68;56.60
45991;BME280;31721;41.740;-88.000;2023-08-21T10:43:54;99547.93;;;22.82;56.68
45991;BME280;31721;41.740;-88.000;2023-08-21T10:46:22;99556.35;;;22.62;56.79
45991;BME280;31721;41.740;-88.000;2023-08-21T10:48:50;99559.16;;;22.79;56.81
45991;BME280;31721;41.740;-88.000;2023-08-21T10:51:18;99559.25;;;22.71;56.93
45991;BME280;31721;41.740;-88.000;2023-08-21T10:53:46;99564.60;;;22.68;56.91
45991;BME280;31721;41.740;-88.000;2023-08-21T10:56:13;99570.32;;;22.59;57.00
45991;BME280;31721;41.740;-88.000;2023-08-21T10:58:42;99574.52;;;22.73;57.07
45991;BME280;31721;41.740;-88.000;2023-08-21T11:01:10;99576.78;;;22.55;57.18
45991;BME280;31721;41.740;-88.000;2023-08-21T11:03:40;99578.83;;;22.72;57.20
45991;BME280;31721;41.740;-88.000;2023-08-21T11:06:09;99580.38;;;22.57;57.39
45991;BME280;31721;41.740;-88.000;2023-08-21T11:08:37;99586.40;;;22.62;57.41
45991;BME280;31721;41.740;-88.000;2023-08-21T11:11:05;99591.36;;;22.62;57.41
45991;BME280;31721;41.740;-88.000;2023-08-21T11:13:34;99595.43;;;22.54;57.53
45991;BME280;31721;41.740;-88.000;2023-08-21T11:16:03;99594.55;;;22.56;57.62
45991;BME280;31721;41.740;-88.000;2023-08-21T11:18:32;99597.32;;;22.61;57.75
45991;BME280;31721;41.740;-88.000;2023-08-21T11:21:06;99597.24;;;22.62;57.93
45991;BME280;31721;41.740;-88.000;2023-08-21T11:23:34;99605.53;;;22.54;57.71
45991;BME280;31721;41.740;-88.000;2023-08-21T11:26:03;99610.35;;;22.69;57.72
45991;BME280;31721;41.740;-88.000;2023-08-21T11:28:31;99609.49;;;22.69;57.63
45991;BME280;31721;41.740;-88.000;2023-08-21T11:31:00;99610.30;;;22.62;57.95
45991;BME280;31721;41.740;-88.000;2023-08-21T11:33:28;99614.21;;;22.57;57.82
45991;BME280;31721;41.740;-88.000;2023-08-21T11:35:56;99618.18;;;22.51;57.96
45991;BME280;31721;41.740;-88.000;2023-08-21T11:38:25;99617.20;;;22.69;57.94
45991;BME280;31721;41.740;-88.000;2023-08-21T11:40:54;99621.96;;;22.70;58.04
45991;BME280;31721;41.740;-88.000;2023-08-21T11:43:33;99624.71;;;22.67;58.08
45991;BME280;31721;41.740;-88.000;2023-08-21T11:46:01;99627.88;;;22.75;58.05
45991;BME280;31721;41.740;-88.000;2023-08-21T11:48:30;99623.44;;;22.70;58.02
45991;BME280;31721;41.740;-88.000;2023-08-21T11:50:58;99626.38;;;22.68;58.19
45991;BME280;31721;41.740;-88.000;2023-08-21T11:53:32;99629.03;;;22.69;58.11
45991;BME280;31721;41.740;-88.000;2023-08-21T11:56:00;99629.64;;;22.71;58.28
45991;BME280;31721;41.740;-88.000;2023-08-21T11:58:28;99633.58;;;22.64;58.14
45991;BME280;31721;41.740;-88.000;2023-08-21T12:01:02;99633.60;;;22.64;58.12
45991;BME280;31721;41.740;-88.000;2023-08-21T12:03:36;99627.94;;;22.79;58.40
45991;BME280;31721;41.740;-88.000;2023-08-21T12:06:06;99628.53;;;22.74;58.18
45991;BME280;31721;41.740;-88.000;2023-08-21T12:08:34;99632.12;;;22.74;58.23
45991;BME280;31721;41.740;-88.000;2023-08-21T12:11:03;99641.39;;;22.80;58.16
45991;BME280;31721;41.740;-88.000;2023-08-21T12:13:31;99648.60;;;22.84;58.16
45991;BME280;31721;41.740;-88.000;2023-08-21T12:15:59;99652.80;;;22.88;58.00
45991;BME280;31721;41.740;-88.000;2023-08-21T12:18:27;99658.14;;;22.87;58.09
45991;BME280;31721;41.740;-88.000;2023-08-21T12:20:55;99659.65;;;22.88;58.23
45991;BME280;31721;41.740;-88.000;2023-08-21T12:23:23;99663.98;;;22.90;58.16
45991;BME280;31721;41.740;-88.000;2023-08-21T12:25:52;99664.14;;;22.95;58.20
45991;BME280;31721;41.740;-88.000;2023-08-21T12:28:20;99663.51;;;23.02;58.22
45991;BME280;31721;41.740;-88.000;2023-08-21T12:30:48;99664.50;;;23.07;58.30
45991;BME280;31721;41.740;-88.000;2023-08-21T12:33:16;99666.95;;;23.11;58.08
45991;BME280;31721;41.740;-88.000;2023-08-21T12:35:43;99668.51;;;23.16;58.11
45991;BME280;31721;41.740;-88.000;2023-08-21T12:38:11;99672.88;;;23.11;58.08
45991;BME280;31721;41.740;-88.000;2023-08-21T12:40:40;99680.27;;;23.24;58.20
45991;BME280;31721;41.740;-88.000;2023-08-21T12:43:07;99685.81;;;23.20;58.06
45991;BME280;31721;41.740;-88.000;2023-08-21T12:45:36;99684.13;;;23.24;57.96
45991;BME280;31721;41.740;-88.000;2023-08-21T12:48:04;99681.43;;;23.30;57.99
45991;BME280;31721;41.740;-88.000;2023-08-21T12:50:32;99681.76;;;23.35;58.14